ADDS TAF Board (Experimental) INFO

IDs: Format: Expanded Condensed

Updated at: 1113 UTC 25 Oct 2014

KMCO - Orlando Intl, FL, US

Issued at 0859 UTC 25 Oct 2014
Time1053Z25/12Z25/13Z25/14Z25/15Z25/16Z25/17Z25/18Z25/19Z25/20Z25/21Z25/22Z25/23Z26/00Z
TypeOBSPRVLPRVLPRVLPRVLPRVLPRVLPRVLPRVLPRVLPRVLPRVLPRVLPRVL
VIS10>6>6>6>6>6>6>6>6>6>6>6>6>6
CIG----------------------------
CoverSCTSCTSCTSCTSCTSCTSCTSCTSCTSCTSCTSCTSCTSKC
FltCat--VFRVFRVFRVFRVFRVFRVFRVFRVFRVFRVFRVFRVFR
WX----------------------------
WDir34035035035035035035035035035035035035010
WSpd81010101010101010101010106
WGst----------------------------
R17/35
XWnd-3-2-2-2-2-2-2-2-2-2-2-2-21
HWnd-8-10-10-10-10-10-10-10-10-10-10-10-10-6
R18/36
XWnd-3-2-2-2-2-2-2-2-2-2-2-2-21
HWnd-8-10-10-10-10-10-10-10-10-10-10-10-10-6
Raw TAF
KMCO 250859Z 2509/2606 35010KT P6SM SCT045
  TEMPO 2509/2512 BKN045
  FM260000 01006KT P6SM SKC


Raw METAR
KMCO 251053Z 34008KT 10SM SCT038 18/12 A2998 RMK AO2 SLP149 T01780117 $

TAF Board Legend

Hazard VFR MVFR IFR LIFR
Visibility (sm) >5 3≤X≤5 1≤X<3 <1
Ceiling (100 ft) >30 10≤X≤30 5≤X<10 <5
Wind Speed (kt) <10 10≤X<20 20≤X<30 ≥30
Wind Gust (kt) <15 15≤X<25 25≤X<35 ≥35
Weather No Wx Reported VCTS,-TS,-FZRA TS,FZRA +TS,+FZRA


Page loaded:  11:13 UTC  |   04:13 AM Pacific  |   05:13 AM Mountain  |   06:13 AM Central  |   07:13 AM Eastern

 

ADVISORIES

FORECASTS

FORECASTS

OBSERVATIONS

USER TOOLS

ABOUT US